createdAt,value
2019-04-27T00:06:13.473Z,38.87
2019-04-27T00:08:49.663Z,38.13
2019-04-27T00:11:23.461Z,43.25
2019-04-27T00:13:54.444Z,40.73
2019-04-27T00:16:47.152Z,45.90
2019-04-27T00:19:35.544Z,47.27
2019-04-27T00:22:14.759Z,44.77
2019-04-27T00:24:46.047Z,46.00
2019-04-27T00:27:17.004Z,43.97
2019-04-27T00:29:48.831Z,45.60
2019-04-27T00:32:19.905Z,43.08
2019-04-27T00:34:53.158Z,52.87
2019-04-27T00:37:44.967Z,48.03
2019-04-27T00:40:20.393Z,49.30
2019-04-27T00:42:54.028Z,48.37
2019-04-27T00:45:24.857Z,45.92
2019-04-27T00:47:59.677Z,46.80
2019-04-27T00:50:29.234Z,52.30
2019-04-27T00:53:00.055Z,50.90
2019-04-27T00:55:33.308Z,53.43
2019-04-27T00:58:32.927Z,47.13
2019-04-27T01:01:24.087Z,46.37
2019-04-27T01:03:58.874Z,55.75
2019-04-27T01:06:30.212Z,50.73
2019-04-27T01:09:03.362Z,54.57
2019-04-27T01:11:36.075Z,48.00
2019-04-27T01:14:07.329Z,55.27
2019-04-27T01:16:39.213Z,49.90
2019-04-27T01:19:10.541Z,60.43
2019-04-27T01:21:42.215Z,53.15
2019-04-27T01:24:13.473Z,49.33
2019-04-27T01:26:59.992Z,53.10
2019-04-27T01:29:31.674Z,58.70
2019-04-27T01:32:03.511Z,52.50
2019-04-27T01:34:34.765Z,52.87
2019-04-27T01:37:05.849Z,49.13
2019-04-27T01:39:38.674Z,51.30
2019-04-27T01:42:10.612Z,52.10
2019-04-27T01:44:42.504Z,53.13
2019-04-27T01:47:13.490Z,46.90
2019-04-27T01:49:44.792Z,54.07
2019-04-27T01:52:15.874Z,46.43
2019-04-27T01:54:47.274Z,51.97
2019-04-27T01:57:19.412Z,50.77
2019-04-27T01:59:51.146Z,50.37
2019-04-27T02:02:29.696Z,50.07
2019-04-27T02:05:20.038Z,51.83
2019-04-27T02:07:51.329Z,54.33
2019-04-27T02:10:22.408Z,49.70
2019-04-27T02:12:53.439Z,53.23
2019-04-27T02:15:24.612Z,54.95
2019-04-27T02:17:55.650Z,55.40
2019-04-27T02:20:28.285Z,56.67
2019-04-27T02:22:59.569Z,50.37
2019-04-27T02:25:30.645Z,54.20
2019-04-27T02:28:09.313Z,50.90
2019-04-27T02:30:58.345Z,53.87
2019-04-27T02:33:40.196Z,53.20
2019-04-27T02:36:14.813Z,49.80
2019-04-27T02:38:43.852Z,53.43
2019-04-27T02:41:14.912Z,52.93
2019-04-27T02:44:10.983Z,55.37
2019-04-27T02:46:42.838Z,55.67
2019-04-27T02:49:14.005Z,52.80
2019-04-27T02:52:20.050Z,51.17
2019-04-27T02:54:51.425Z,53.90
2019-04-27T02:57:22.543Z,50.07
2019-04-27T02:59:53.599Z,50.90
2019-04-27T03:02:30.272Z,48.10
2019-04-27T03:05:01.398Z,51.53
2019-04-27T03:07:32.493Z,49.73
2019-04-27T03:10:03.576Z,54.05
2019-04-27T03:12:42.410Z,53.40
2019-04-27T03:15:32.854Z,51.23
2019-04-27T03:18:10.115Z,49.60
2019-04-27T03:21:00.298Z,51.30
2019-04-27T03:23:32.064Z,48.67
2019-04-27T03:26:30.987Z,54.53
2019-04-27T03:29:01.203Z,50.10
2019-04-27T03:31:33.253Z,54.20
2019-04-27T03:34:05.955Z,49.10
2019-04-27T03:36:39.559Z,53.03
2019-04-27T03:39:10.437Z,47.80
2019-04-27T03:41:41.903Z,54.10
2019-04-27T03:44:13.211Z,46.33
2019-04-27T03:46:44.256Z,53.53
2019-04-27T03:49:31.781Z,40.27
2019-04-27T03:51:54.721Z,53.67
2019-04-27T03:54:32.298Z,49.77
2019-04-27T03:57:09.925Z,51.50
2019-04-27T04:00:01.013Z,52.87
2019-04-27T04:02:32.333Z,48.67
2019-04-27T04:05:03.509Z,58.87
2019-04-27T04:07:34.596Z,48.97
2019-04-27T04:10:05.946Z,55.83
2019-04-27T04:12:44.259Z,51.23
2019-04-27T04:15:33.297Z,55.87
2019-04-27T04:18:04.522Z,45.00
2019-04-27T04:20:35.769Z,50.60
2019-04-27T04:23:06.736Z,49.23
2019-04-27T04:25:40.882Z,44.83
2019-04-27T04:28:11.490Z,48.97
2019-04-27T04:30:43.075Z,49.38
2019-04-27T04:33:14.167Z,44.43
2019-04-27T04:35:45.157Z,43.03
2019-04-27T04:38:20.330Z,48.07
2019-04-27T04:40:59.112Z,48.17
2019-04-27T04:43:40.175Z,46.60
2019-04-27T04:46:29.868Z,47.87
2019-04-27T04:49:01.302Z,45.30
2019-04-27T04:51:32.747Z,46.57
2019-04-27T04:54:04.065Z,43.93
2019-04-27T04:56:35.821Z,47.40
2019-04-27T04:59:06.889Z,53.50
2019-04-27T05:01:39.910Z,43.07
2019-04-27T05:04:11.273Z,45.40
2019-04-27T05:06:42.880Z,41.55
2019-04-27T05:09:14.106Z,45.30
2019-04-27T05:11:45.174Z,41.37
2019-04-27T05:14:16.147Z,42.37
2019-04-27T05:16:48.800Z,47.13
2019-04-27T05:19:20.068Z,43.77
2019-04-27T05:21:51.595Z,40.67
2019-04-27T05:24:22.857Z,41.90
2019-04-27T05:26:54.084Z,40.43
2019-04-27T05:29:25.346Z,42.50
2019-04-27T05:31:56.704Z,38.88
2019-04-27T05:34:29.273Z,39.70
2019-04-27T05:37:01.116Z,38.73
2019-04-27T05:39:33.040Z,39.53
2019-04-27T05:42:04.099Z,34.43
2019-04-27T05:45:02.151Z,48.30
2019-04-27T05:47:43.453Z,33.93
2019-04-27T05:50:20.040Z,35.87
2019-04-27T05:53:09.824Z,36.20
2019-04-27T05:55:41.321Z,32.57
2019-04-27T05:58:12.898Z,29.60
2019-04-27T06:00:44.413Z,31.67
2019-04-27T06:03:15.685Z,30.63
2019-04-27T06:05:46.947Z,29.17
2019-04-27T06:08:18.763Z,33.50
2019-04-27T06:10:50.685Z,33.33
2019-04-27T06:13:22.144Z,28.73
2019-04-27T06:15:53.104Z,33.13
2019-04-27T06:18:24.409Z,29.57
2019-04-27T06:20:56.043Z,26.20
2019-04-27T06:23:28.903Z,26.67
2019-04-27T06:26:01.808Z,24.67
2019-04-27T06:28:33.053Z,27.00
2019-04-27T06:31:04.398Z,28.03
2019-04-27T06:33:35.488Z,28.37
2019-04-27T06:36:06.629Z,27.83
2019-04-27T06:38:39.374Z,25.03
2019-04-27T06:41:10.861Z,26.80
2019-04-27T06:43:41.854Z,28.73
2019-04-27T06:46:13.531Z,23.83
2019-04-27T06:48:45.376Z,26.70
2019-04-27T06:51:16.341Z,25.70
2019-04-27T06:53:47.396Z,28.80
2019-04-27T06:56:18.581Z,28.20
2019-04-27T06:58:50.175Z,24.10
2019-04-27T07:01:21.579Z,25.73
2019-04-27T07:03:52.699Z,25.17
2019-04-27T07:06:23.851Z,22.43
2019-04-27T07:08:55.278Z,21.53
2019-04-27T07:11:26.424Z,23.73
2019-04-27T07:13:59.402Z,27.30
2019-04-27T07:16:30.585Z,20.13
2019-04-27T07:19:02.562Z,22.43
2019-04-27T07:21:33.959Z,17.10
2019-04-27T07:24:05.328Z,19.37
2019-04-27T07:26:36.300Z,14.80
2019-04-27T07:29:09.365Z,15.93
2019-04-27T07:31:40.415Z,16.80
2019-04-27T07:34:11.431Z,11.17
2019-04-27T07:36:43.306Z,16.55
2019-04-27T07:39:14.590Z,15.37
2019-04-27T07:41:45.671Z,12.33
2019-04-27T07:44:34.378Z,7.77
2019-04-27T07:47:19.552Z,11.90
2019-04-27T07:49:50.661Z,15.50
2019-04-27T07:52:21.814Z,12.30
2019-04-27T07:54:53.210Z,8.80
2019-04-27T07:57:24.241Z,8.47
2019-04-27T07:59:55.291Z,6.90
2019-04-27T08:02:26.230Z,10.40
2019-04-27T08:04:57.230Z,7.97
2019-04-27T08:07:29.151Z,9.03
2019-04-27T08:10:01.649Z,7.97
2019-04-27T08:12:32.817Z,6.37
2019-04-27T08:15:04.633Z,10.93
2019-04-27T08:17:36.700Z,7.67
2019-04-27T08:20:09.294Z,7.67
2019-04-27T08:22:40.284Z,8.33
2019-04-27T08:25:11.635Z,9.17
2019-04-27T08:28:10.352Z,12.70
2019-04-27T08:31:03.152Z,9.10
2019-04-27T08:33:34.417Z,7.83
2019-04-27T08:36:05.641Z,9.67
2019-04-27T08:38:36.674Z,6.57
2019-04-27T08:41:09.009Z,11.60
2019-04-27T08:43:40.443Z,7.47
2019-04-27T08:46:11.411Z,9.10
2019-04-27T08:48:43.538Z,10.17
2019-04-27T08:51:14.837Z,10.27
2019-04-27T08:53:45.862Z,9.90
2019-04-27T08:56:16.842Z,12.77
2019-04-27T08:58:49.536Z,12.07
2019-04-27T09:01:21.839Z,10.50
2019-04-27T09:03:52.847Z,7.43
2019-04-27T09:06:23.799Z,7.00
2019-04-27T09:09:01.193Z,6.83
2019-04-27T09:11:50.785Z,7.37
2019-04-27T09:14:41.877Z,6.28
2019-04-27T09:17:19.350Z,5.67
2019-04-27T09:20:12.651Z,3.80
2019-04-27T09:22:44.012Z,5.70
2019-04-27T09:25:15.080Z,4.50
2019-04-27T09:27:46.424Z,6.03
2019-04-27T09:30:19.067Z,4.60
2019-04-27T09:32:51.202Z,3.30
2019-04-27T09:35:22.293Z,2.73
2019-04-27T09:37:53.242Z,5.60
2019-04-27T09:40:24.305Z,3.63
2019-04-27T09:42:57.274Z,5.73
2019-04-27T09:45:28.260Z,6.53
2019-04-27T09:48:00.227Z,2.58
2019-04-27T09:50:31.319Z,1.35
2019-04-27T09:53:02.928Z,2.53
2019-04-27T09:55:33.891Z,2.40
2019-04-27T09:58:05.759Z,1.23
2019-04-27T10:00:38.016Z,2.00
2019-04-27T10:03:09.002Z,1.63
2019-04-27T10:05:39.965Z,0.60
2019-04-27T10:08:11.451Z,5.20
2019-04-27T10:10:42.661Z,1.33
2019-04-27T10:13:13.914Z,0.67
2019-04-27T10:15:46.030Z,3.27
2019-04-27T10:18:17.381Z,1.67
2019-04-27T10:20:58.978Z,0.77
2019-04-27T10:23:21.258Z,2.87
2019-04-27T10:25:52.910Z,7.63
2019-04-27T10:28:24.153Z,3.20
2019-04-27T10:30:55.773Z,4.30
2019-04-27T10:33:28.001Z,3.67
2019-04-27T10:35:59.034Z,3.37
2019-04-27T10:38:30.393Z,1.33
2019-04-27T10:41:01.761Z,2.83
2019-04-27T10:43:33.156Z,1.67
2019-04-27T10:46:04.487Z,4.47
2019-04-27T10:48:36.721Z,2.20
2019-04-27T10:51:09.388Z,2.83
2019-04-27T10:53:40.640Z,2.05
2019-04-27T10:56:12.027Z,1.00
2019-04-27T10:58:43.193Z,2.17
2019-04-27T11:01:15.603Z,1.67
2019-04-27T11:04:01.671Z,1.00
2019-04-27T11:06:35.538Z,1.33
2019-04-27T11:09:09.067Z,2.27
2019-04-27T11:11:40.215Z,7.67
2019-04-27T11:14:11.695Z,5.87
2019-04-27T11:16:42.858Z,4.50
2019-04-27T11:19:13.958Z,3.33
2019-04-27T11:21:45.058Z,4.30
2019-04-27T11:24:16.143Z,4.77
2019-04-27T11:26:47.455Z,6.03
2019-04-27T11:29:18.416Z,1.80
2019-04-27T11:31:49.419Z,4.10
2019-04-27T11:34:22.688Z,3.73
2019-04-27T11:37:01.927Z,8.20
2019-04-27T11:39:33.943Z,1.07
2019-04-27T11:42:05.103Z,0.70
2019-04-27T11:44:36.876Z,0.68
2019-04-27T11:47:08.113Z,1.83
2019-04-27T11:49:40.915Z,4.53
2019-04-27T11:52:12.654Z,3.87
2019-04-27T11:54:45.655Z,1.40
2019-04-27T11:57:16.899Z,1.60
2019-04-27T11:59:48.282Z,4.00
2019-04-27T12:02:19.350Z,4.53
2019-04-27T12:04:50.563Z,1.33
2019-04-27T12:07:21.712Z,2.50
2019-04-27T12:09:55.554Z,3.53
2019-04-27T12:12:26.982Z,1.93
2019-04-27T12:14:58.058Z,1.93
2019-04-27T12:17:29.376Z,3.23
2019-04-27T12:20:00.317Z,2.93
2019-04-27T12:22:31.917Z,1.30
2019-04-27T12:25:03.037Z,1.20
2019-04-27T12:27:55.893Z,4.27
2019-04-27T12:30:52.023Z,2.83
2019-04-27T12:33:25.646Z,0.53
2019-04-27T12:35:57.029Z,1.10
2019-04-27T12:38:28.458Z,2.07
2019-04-27T12:40:59.649Z,1.47
2019-04-27T12:43:31.089Z,1.50
2019-04-27T12:46:02.725Z,1.80
2019-04-27T12:48:37.154Z,1.47
2019-04-27T12:51:07.442Z,1.27
2019-04-27T12:53:52.968Z,2.87
2019-04-27T12:56:46.325Z,1.07
2019-04-27T12:59:36.562Z,4.10
2019-04-27T13:02:08.472Z,3.37
2019-04-27T13:04:39.533Z,3.60
2019-04-27T13:07:11.941Z,2.87
2019-04-27T13:09:43.345Z,2.90
2019-04-27T13:12:14.979Z,3.47
2019-04-27T13:14:46.504Z,2.00
2019-04-27T13:17:17.730Z,9.57
2019-04-27T13:19:49.147Z,5.77
2019-04-27T13:22:20.170Z,3.80
2019-04-27T13:24:51.808Z,3.47
2019-04-27T13:27:22.805Z,6.37
2019-04-27T13:29:53.789Z,2.63
2019-04-27T13:32:26.491Z,2.80
2019-04-27T13:34:57.812Z,5.90
2019-04-27T13:37:55.963Z,2.97
2019-04-27T13:40:27.378Z,2.43
2019-04-27T13:43:09.387Z,3.80
2019-04-27T13:46:05.443Z,6.37
2019-04-27T13:48:55.966Z,1.95
2019-04-27T13:51:48.915Z,4.97
2019-04-27T13:54:26.121Z,7.97
2019-04-27T13:56:52.907Z,4.13
2019-04-27T13:59:23.960Z,3.13
2019-04-27T14:01:55.025Z,2.93
2019-04-27T14:04:26.372Z,0.50
2019-04-27T14:06:58.999Z,2.07
2019-04-27T14:09:31.056Z,1.90
2019-04-27T14:12:18.758Z,3.03
2019-04-27T14:14:51.869Z,0.87
2019-04-27T14:17:23.330Z,1.23
2019-04-27T14:19:54.611Z,1.70
2019-04-27T14:22:25.786Z,2.23
2019-04-27T14:24:58.380Z,0.70
2019-04-27T14:27:36.751Z,0.67
2019-04-27T14:30:09.124Z,0.67
2019-04-27T14:32:42.283Z,0.40
2019-04-27T14:35:12.921Z,0.30
2019-04-27T14:37:47.448Z,0.47
2019-04-27T14:40:18.549Z,3.70
2019-04-27T14:42:50.532Z,1.30
2019-04-27T14:45:22.483Z,0.67
2019-04-27T14:47:53.574Z,1.70
2019-04-27T14:50:24.963Z,1.00
2019-04-27T14:52:59.039Z,3.03
2019-04-27T14:55:30.487Z,4.17
2019-04-27T14:58:01.980Z,2.27
2019-04-27T15:00:33.433Z,0.90
2019-04-27T15:03:04.473Z,1.03
2019-04-27T15:05:35.833Z,1.57
2019-04-27T15:08:09.754Z,1.70
2019-04-27T15:10:40.419Z,0.83
2019-04-27T15:13:11.896Z,1.23
2019-04-27T15:15:43.370Z,1.60
2019-04-27T15:18:14.990Z,1.70
2019-04-27T15:20:46.756Z,1.63
2019-04-27T15:23:17.793Z,2.03
2019-04-27T15:25:50.001Z,3.13
2019-04-27T15:28:25.512Z,2.90
2019-04-27T15:31:25.362Z,1.00
2019-04-27T15:34:27.497Z,0.98
2019-04-27T15:37:15.747Z,0.87
2019-04-27T15:40:10.110Z,1.17
2019-04-27T15:42:52.919Z,2.70
2019-04-27T15:45:24.441Z,1.33
2019-04-27T15:47:55.954Z,2.03
2019-04-27T15:50:28.507Z,1.50
2019-04-27T15:53:02.887Z,3.80
2019-04-27T15:55:36.989Z,3.13
2019-04-27T15:58:05.557Z,2.23
2019-04-27T16:00:38.308Z,4.70
2019-04-27T16:03:09.898Z,6.70
2019-04-27T16:05:41.007Z,4.03
2019-04-27T16:08:15.276Z,4.10
2019-04-27T16:10:45.665Z,3.20
2019-04-27T16:13:18.857Z,7.58
2019-04-27T16:15:54.203Z,3.00
2019-04-27T16:18:24.577Z,7.10
2019-04-27T16:20:56.125Z,4.72
2019-04-27T16:23:28.380Z,8.90
2019-04-27T16:26:00.641Z,3.77
2019-04-27T16:28:32.666Z,11.23
2019-04-27T16:31:03.769Z,7.50
2019-04-27T16:33:34.909Z,6.30
2019-04-27T16:36:07.251Z,6.70
2019-04-27T16:38:48.398Z,4.03
2019-04-27T16:41:19.359Z,4.43
2019-04-27T16:43:50.733Z,5.93
2019-04-27T16:46:21.978Z,4.80
2019-04-27T16:48:53.815Z,5.43
2019-04-27T16:51:25.573Z,3.77
2019-04-27T16:53:58.431Z,1.97
2019-04-27T16:56:29.498Z,3.20
2019-04-27T16:59:11.405Z,0.80
2019-04-27T17:01:34.952Z,0.60
2019-04-27T17:04:06.398Z,1.10
2019-04-27T17:06:45.669Z,3.23
2019-04-27T17:09:11.992Z,2.00
2019-04-27T17:11:50.006Z,4.97
2019-04-27T17:14:26.545Z,5.30
2019-04-27T17:17:21.270Z,3.43
2019-04-27T17:19:55.242Z,4.17
2019-04-27T17:22:26.540Z,4.40
2019-04-27T17:24:58.194Z,7.87
2019-04-27T17:27:38.224Z,4.83
2019-04-27T17:30:09.794Z,6.57
2019-04-27T17:32:51.030Z,4.43
2019-04-27T17:35:22.210Z,4.57
2019-04-27T17:37:54.531Z,6.83
2019-04-27T17:40:29.995Z,8.23
2019-04-27T17:42:59.748Z,5.27
2019-04-27T17:45:36.374Z,6.30
2019-04-27T17:48:07.439Z,5.73
2019-04-27T17:50:38.701Z,8.15
2019-04-27T17:53:10.018Z,5.73
2019-04-27T17:55:41.452Z,8.70
2019-04-27T17:58:12.613Z,12.58
2019-04-27T18:00:44.747Z,7.53
2019-04-27T18:03:17.543Z,11.40
2019-04-27T18:05:51.857Z,7.58
2019-04-27T18:08:25.085Z,7.70
2019-04-27T18:11:00.655Z,6.42
2019-04-27T18:13:28.869Z,9.57
2019-04-27T18:15:59.891Z,6.40
2019-04-27T18:18:49.209Z,4.20
2019-04-27T18:21:25.058Z,4.05
2019-04-27T18:24:01.551Z,5.00
2019-04-27T18:26:49.474Z,5.30
2019-04-27T18:29:14.537Z,7.45
2019-04-27T18:31:46.372Z,7.47
2019-04-27T18:34:19.054Z,3.15
2019-04-27T18:36:50.138Z,3.65
2019-04-27T18:39:21.083Z,6.53
2019-04-27T18:41:54.332Z,7.67
2019-04-27T18:44:30.535Z,6.77
2019-04-27T18:47:02.350Z,7.00
2019-04-27T18:49:50.977Z,5.37
2019-04-27T18:52:47.521Z,4.20
2019-04-27T18:55:16.887Z,4.50
2019-04-27T18:57:51.085Z,8.40
2019-04-27T19:00:21.803Z,6.97
2019-04-27T19:02:53.071Z,7.43
2019-04-27T19:05:37.324Z,8.33
2019-04-27T19:07:57.339Z,10.27
2019-04-27T19:10:29.016Z,5.50
2019-04-27T19:13:00.330Z,6.70
2019-04-27T19:15:31.455Z,10.97
2019-04-27T19:18:02.813Z,5.37
2019-04-27T19:20:35.087Z,5.80
2019-04-27T19:23:06.107Z,9.57
2019-04-27T19:25:50.055Z,5.07
2019-04-27T19:28:48.142Z,8.43
2019-04-27T19:31:24.551Z,8.43
2019-04-27T19:33:55.729Z,4.87
2019-04-27T19:36:30.238Z,5.53
2019-04-27T19:39:01.100Z,10.17
2019-04-27T19:41:33.668Z,5.43
2019-04-27T19:44:04.742Z,9.20
2019-04-27T19:46:35.830Z,6.33
2019-04-27T19:49:08.760Z,9.93
2019-04-27T19:51:39.903Z,5.63
2019-04-27T19:54:10.914Z,9.73
2019-04-27T19:56:42.132Z,7.80
2019-04-27T19:59:21.164Z,13.47
2019-04-27T20:01:53.802Z,8.73
2019-04-27T20:04:33.500Z,6.23
2019-04-27T20:07:04.559Z,8.53
2019-04-27T20:09:58.341Z,5.53
2019-04-27T20:12:31.189Z,6.93
2019-04-27T20:15:02.495Z,6.23
2019-04-27T20:17:34.750Z,9.07
2019-04-27T20:20:07.109Z,7.13
2019-04-27T20:22:38.103Z,6.47
2019-04-27T20:25:11.235Z,7.90
2019-04-27T20:27:49.545Z,7.83
2019-04-27T20:30:20.927Z,11.13
2019-04-27T20:32:52.047Z,7.93
2019-04-27T20:35:23.058Z,7.33
2019-04-27T20:37:54.366Z,8.53
2019-04-27T20:40:25.361Z,5.72
2019-04-27T20:42:56.926Z,13.40
2019-04-27T20:45:28.516Z,11.67
2019-04-27T20:48:01.119Z,8.03
2019-04-27T20:50:32.975Z,10.07
2019-04-27T20:53:07.606Z,5.87
2019-04-27T20:55:38.545Z,4.33
2019-04-27T20:58:11.192Z,8.80
2019-04-27T21:00:42.271Z,9.53
2019-04-27T21:03:33.652Z,7.00
2019-04-27T21:06:24.886Z,8.03
2019-04-27T21:08:55.863Z,10.93
2019-04-27T21:11:42.594Z,7.90
2019-04-27T21:14:13.603Z,11.10
2019-04-27T21:16:44.757Z,6.57
2019-04-27T21:19:16.161Z,10.63
2019-04-27T21:21:47.459Z,10.30
2019-04-27T21:24:18.514Z,6.95
2019-04-27T21:26:51.258Z,6.20
2019-04-27T21:29:22.456Z,9.25
2019-04-27T21:31:53.791Z,8.03
2019-04-27T21:34:25.452Z,6.42
2019-04-27T21:36:56.873Z,8.33
2019-04-27T21:39:27.871Z,7.27
2019-04-27T21:41:58.851Z,9.23
2019-04-27T21:44:31.807Z,6.70
2019-04-27T21:47:02.932Z,12.33
2019-04-27T21:49:34.230Z,10.47
2019-04-27T21:52:14.466Z,9.43
2019-04-27T21:54:44.743Z,10.30
2019-04-27T21:57:15.782Z,13.50
2019-04-27T21:59:46.996Z,8.67
2019-04-27T22:02:19.624Z,5.33
2019-04-27T22:04:52.380Z,5.33
2019-04-27T22:07:23.385Z,8.68
2019-04-27T22:09:54.399Z,5.95
2019-04-27T22:12:25.687Z,5.70
2019-04-27T22:14:56.976Z,9.13
2019-04-27T22:17:28.049Z,6.77
2019-04-27T22:20:01.466Z,5.17
2019-04-27T22:22:41.410Z,9.07
2019-04-27T22:25:12.445Z,7.13
2019-04-27T22:27:43.441Z,7.42
2019-04-27T22:30:14.447Z,7.40
2019-04-27T22:32:45.700Z,7.27
2019-04-27T22:35:16.818Z,7.43
2019-04-27T22:37:48.756Z,6.43
2019-04-27T22:40:42.009Z,4.43
2019-04-27T22:43:38.451Z,10.47
2019-04-27T22:46:11.812Z,10.80
2019-04-27T22:48:42.847Z,5.97
2019-04-27T22:51:13.779Z,9.70
2019-04-27T22:53:46.066Z,7.03
2019-04-27T22:56:18.993Z,10.25
2019-04-27T22:59:00.610Z,7.90
2019-04-27T23:01:38.766Z,8.20
2019-04-27T23:04:11.905Z,7.70
2019-04-27T23:06:42.850Z,6.87
2019-04-27T23:09:14.356Z,6.37
2019-04-27T23:11:45.317Z,7.00
2019-04-27T23:14:16.984Z,8.35
2019-04-27T23:16:50.004Z,6.30
2019-04-27T23:19:21.089Z,12.28
2019-04-27T23:21:53.259Z,12.82
2019-04-27T23:24:24.519Z,8.30
2019-04-27T23:26:55.782Z,7.33
2019-04-27T23:29:26.748Z,10.10
2019-04-27T23:32:12.313Z,8.53
2019-04-27T23:34:43.262Z,12.80
2019-04-27T23:37:14.637Z,7.83
2019-04-27T23:39:46.577Z,11.50
2019-04-27T23:42:17.929Z,13.50
2019-04-27T23:44:49.118Z,6.87
2019-04-27T23:47:20.542Z,7.10
2019-04-27T23:49:51.534Z,9.73
2019-04-27T23:52:42.475Z,7.83
2019-04-27T23:55:13.448Z,10.73
2019-04-27T23:57:44.779Z,7.90
